Trans Exeter — 9HA2572 — position and weather

sailwx.info

Track history (hours):
 
Tides and Currents Weather Stations Pressure Air Temp Water Temp Dewpoint Dewpoint Depression Visibility Wind Speed Wind Dir Waves Ship Positions

Trans Exeter

Last reported at 2018-Jan-12 09:40 UTC. Time now 2018-Jan-21 12:24 UTC.
Position N 37°12' W 000°53'.
Warning: this ship's position is 9 days out of date.

Length 118 m; draft 5.7 m.

Type: Ship (hazmat cat C). MMSI: 248908000.

Date/timePositionNaut miles runAvg speedWind from/ knotsBaromVisibWave heightAir tempDewpointWater temp
2018-Jan-12 09:40N 37°12' W 000°53'415.7
2018-Jan-12 09:26N 37°14' W 000°49'615.5
2018-Jan-12 09:01N 37°18' W 000°43'31 0.6
2018-Jan-10 08:08N 37°44' W 000°22'215.6
2018-Jan-10 08:00N 37°43' W 000°24'815.7
2018-Jan-10 07:30N 37°36' W 000°29'815.3
2018-Jan-10 06:58N 37°30' W 000°36'715.2
2018-Jan-10 06:30N 37°26' W 000°43'814.9
2018-Jan-10 05:58N 37°20' W 000°51'22114.8
2018-Jan-09 15:05N 36°00' W 005°07'215.3
2018-Jan-09 14:58N 36°00' W 005°10'716.0
2018-Jan-09 14:30N 35°59' W 005°19'917.5
2018-Jan-09 14:00N 35°57' W 005°29'816.8
2018-Jan-09 13:30N 35°55' W 005°39'22512.0
2018-Jan-08 18:49N 37°56' W 009°36'414.4
2018-Jan-08 18:30N 38°00' W 009°35'714.5
2018-Jan-08 18:00N 38°07' W 009°32'814.7
2018-Jan-08 17:30N 38°15' W 009°30'714.6
2018-Jan-08 17:00N 38°21' W 009°28'714.7
2018-Jan-08 16:30N 38°29' W 009°25'713.9
2018-Jan-08 16:00N 38°35' W 009°23'611.4
2018-Jan-08 15:30N 38°40' W 009°19'612.0
2018-Jan-08 14:59N 38°41' W 009°11'4 9.1
2018-Jan-08 14:30N 38°41' W 009°06'2 3.1
2018-Jan-08 14:00N 38°41' W 009°04'0 0.0
2018-Jan-08 13:30N 38°41' W 009°04'0 0.0
2018-Jan-08 10:40N 38°41' W 009°04'0 0.0
2018-Jan-08 10:16N 38°41' W 009°04'0 0.0
2018-Jan-08 09:46N 38°41' W 009°04'0 0.0
2018-Jan-08 08:34N 38°41' W 009°04'0 0.0
2018-Jan-08 08:16N 38°41' W 009°04'0 0.0
2018-Jan-08 07:46N 38°41' W 009°04'0 0.0
2018-Jan-08 07:22N 38°41' W 009°04'0 0.0
2018-Jan-08 06:58N 38°41' W 009°04'0 0.0
2018-Jan-08 06:10N 38°41' W 009°04'0 0.0
2018-Jan-08 05:58N 38°41' W 009°04'0 0.0
2018-Jan-08 05:22N 38°41' W 009°04'0 0.0
2018-Jan-08 04:58N 38°41' W 009°04'0 0.0
2018-Jan-08 04:22N 38°41' W 009°04'0 0.0
2018-Jan-08 03:28N 38°41' W 009°04'0 0.0
2018-Jan-08 02:49N 38°41' W 009°04'0 0.0
2018-Jan-08 02:22N 38°41' W 009°04'0 0.0
2018-Jan-08 01:52N 38°41' W 009°04'0 0.0
2018-Jan-08 01:16N 38°41' W 009°04'0 0.0
2018-Jan-08 00:52N 38°41' W 009°04'0 0.0
2018-Jan-07 23:40N 38°41' W 009°04'0 0.0
2018-Jan-07 23:16N 38°41' W 009°04'0 0.0
2018-Jan-07 22:58N 38°41' W 009°04'0 0.0
2018-Jan-07 22:22N 38°41' W 009°04'0 0.0
2018-Jan-07 21:52N 38°41' W 009°04'0 0.0
2018-Jan-07 21:22N 38°41' W 009°04'0 0.0
2018-Jan-07 19:10N 38°41' W 009°04'0 0.0
2018-Jan-07 18:58N 38°41' W 009°04'0 0.0
2018-Jan-07 18:28N 38°41' W 009°04'0 0.0
2018-Jan-07 15:46N 38°41' W 009°04'0 0.0
2018-Jan-07 14:20N 38°41' W 009°04'1 2.3
2018-Jan-07 13:59N 38°41' W 009°05'4 8.4
2018-Jan-07 13:28N 38°41' W 009°10'511.6
2018-Jan-07 13:00N 38°41' W 009°17'510.1
2018-Jan-07 12:31N 38°38' W 009°22'3 6.2
2018-Jan-07 12:00N 38°40' W 009°25'2 3.4
2018-Jan-07 11:30N 38°38' W 009°26'510.4
2018-Jan-07 11:00N 38°34' W 009°30'5 9.4
2018-Jan-07 10:30N 38°31' W 009°34'3 6.1
2018-Jan-07 10:00N 38°31' W 009°38'510.2
2018-Jan-07 09:30N 38°34' W 009°44'611.0
2018-Jan-07 09:00N 38°33' W 009°51'611.4
2018-Jan-07 08:30N 38°34' W 009°58'2110.6
2018-Jan-07 06:30N 38°52' W 010°12'714.2
2018-Jan-07 06:00N 38°59' W 010°11'714.6
2018-Jan-07 05:30N 39°07' W 010°12'714.2
2018-Jan-07 05:00N 39°14' W 010°12'  
2018-Jan-04 19:22N 49°54' W 003°11'6 7.1
2018-Jan-04 18:28N 49°57' W 003°03'4 7.6
2018-Jan-04 18:00N 49°59' W 002°58'4 8.1
2018-Jan-04 17:29N 50°00' W 002°52'4 8.5
2018-Jan-04 16:59N 50°02' W 002°45'95 8.8
2018-Jan-04 06:17N 50°28' W 000°23'414.9
2018-Jan-04 06:00N 50°29' W 000°17'815.6
2018-Jan-04 05:30N 50°31' W 000°05'815.9
2018-Jan-04 05:00N 50°33' E 000°07'815.9
2018-Jan-04 04:30N 50°35' E 000°19'815.7
2018-Jan-04 04:00N 50°37' E 000°31'714.7
2018-Jan-04 03:30N 50°41' E 000°41'714.1
2018-Jan-04 03:01N 50°45' E 000°50'713.2
2018-Jan-04 02:30N 50°49' E 000°59'1212.0
2018-Jan-04 01:32N 50°57' E 001°12'110.4
2018-Jan-04 01:26N 50°57' E 001°14'510.6
2018-Jan-04 00:57N 51°01' E 001°19'510.4
2018-Jan-04 00:30N 51°03' E 001°26'510.3
2018-Jan-04 00:00N 51°07' E 001°32'611.4
2018-Jan-03 23:30N 51°10' E 001°39'612.9
2018-Jan-03 23:00N 51°15' E 001°46'714.9
2018-Jan-03 22:30N 51°22' E 001°51'815.9
2018-Jan-03 22:00N 51°29' E 001°58'816.0
2018-Jan-03 21:30N 51°35' E 002°05'17212.1
2018-Jan-03 07:19N 54°17' E 000°30'515.8
2018-Jan-03 07:00N 54°20' E 000°22'816.0
2018-Jan-03 06:30N 54°23' E 000°10'816.4
2018-Jan-03 06:00N 54°27' W 000°02'816.7
2018-Jan-03 05:30N 54°31' W 000°15'  
Track history (hours):
 
Tides and Currents Weather Stations Pressure Air Temp Water Temp Dewpoint Dewpoint Depression Visibility Wind Speed Wind Dir Waves Ship Positions

Trans Exeter

Last reported at 2018-Jan-12 09:40 UTC. Time now 2018-Jan-21 12:24 UTC.
Position N 37°12' W 000°53'.
Warning: this ship's position is 9 days out of date.

Length 118 m; draft 5.7 m.

Type: Ship (hazmat cat C). MMSI: 248908000.

Date/timePositionNaut miles runAvg speedWind from/ knotsBaromVisibWave heightAir tempDewpointWater temp
2018-Jan-12 09:40N 37°12' W 000°53'415.7
2018-Jan-12 09:26N 37°14' W 000°49'615.5
2018-Jan-12 09:01N 37°18' W 000°43'31 0.6
2018-Jan-10 08:08N 37°44' W 000°22'215.6
2018-Jan-10 08:00N 37°43' W 000°24'815.7
2018-Jan-10 07:30N 37°36' W 000°29'815.3
2018-Jan-10 06:58N 37°30' W 000°36'715.2
2018-Jan-10 06:30N 37°26' W 000°43'814.9
2018-Jan-10 05:58N 37°20' W 000°51'22114.8
2018-Jan-09 15:05N 36°00' W 005°07'215.3
2018-Jan-09 14:58N 36°00' W 005°10'716.0
2018-Jan-09 14:30N 35°59' W 005°19'917.5
2018-Jan-09 14:00N 35°57' W 005°29'816.8
2018-Jan-09 13:30N 35°55' W 005°39'22512.0
2018-Jan-08 18:49N 37°56' W 009°36'414.4
2018-Jan-08 18:30N 38°00' W 009°35'714.5
2018-Jan-08 18:00N 38°07' W 009°32'814.7
2018-Jan-08 17:30N 38°15' W 009°30'714.6
2018-Jan-08 17:00N 38°21' W 009°28'714.7
2018-Jan-08 16:30N 38°29' W 009°25'713.9
2018-Jan-08 16:00N 38°35' W 009°23'611.4
2018-Jan-08 15:30N 38°40' W 009°19'612.0
2018-Jan-08 14:59N 38°41' W 009°11'4 9.1
2018-Jan-08 14:30N 38°41' W 009°06'2 3.1
2018-Jan-08 14:00N 38°41' W 009°04'0 0.0
2018-Jan-08 13:30N 38°41' W 009°04'0 0.0
2018-Jan-08 10:40N 38°41' W 009°04'0 0.0
2018-Jan-08 10:16N 38°41' W 009°04'0 0.0
2018-Jan-08 09:46N 38°41' W 009°04'0 0.0
2018-Jan-08 08:34N 38°41' W 009°04'0 0.0
2018-Jan-08 08:16N 38°41' W 009°04'0 0.0
2018-Jan-08 07:46N 38°41' W 009°04'0 0.0
2018-Jan-08 07:22N 38°41' W 009°04'0 0.0
2018-Jan-08 06:58N 38°41' W 009°04'0 0.0
2018-Jan-08 06:10N 38°41' W 009°04'0 0.0
2018-Jan-08 05:58N 38°41' W 009°04'0 0.0
2018-Jan-08 05:22N 38°41' W 009°04'0 0.0
2018-Jan-08 04:58N 38°41' W 009°04'0 0.0
2018-Jan-08 04:22N 38°41' W 009°04'0 0.0
2018-Jan-08 03:28N 38°41' W 009°04'0 0.0
2018-Jan-08 02:49N 38°41' W 009°04'0 0.0
2018-Jan-08 02:22N 38°41' W 009°04'0 0.0
2018-Jan-08 01:52N 38°41' W 009°04'0 0.0
2018-Jan-08 01:16N 38°41' W 009°04'0 0.0
2018-Jan-08 00:52N 38°41' W 009°04'0 0.0
2018-Jan-07 23:40N 38°41' W 009°04'0 0.0
2018-Jan-07 23:16N 38°41' W 009°04'0 0.0
2018-Jan-07 22:58N 38°41' W 009°04'0 0.0
2018-Jan-07 22:22N 38°41' W 009°04'0 0.0
2018-Jan-07 21:52N 38°41' W 009°04'0 0.0
2018-Jan-07 21:22N 38°41' W 009°04'0 0.0
2018-Jan-07 19:10N 38°41' W 009°04'0 0.0
2018-Jan-07 18:58N 38°41' W 009°04'0 0.0
2018-Jan-07 18:28N 38°41' W 009°04'0 0.0
2018-Jan-07 15:46N 38°41' W 009°04'0 0.0
2018-Jan-07 14:20N 38°41' W 009°04'1 2.3
2018-Jan-07 13:59N 38°41' W 009°05'4 8.4
2018-Jan-07 13:28N 38°41' W 009°10'511.6
2018-Jan-07 13:00N 38°41' W 009°17'510.1
2018-Jan-07 12:31N 38°38' W 009°22'3 6.2
2018-Jan-07 12:00N 38°40' W 009°25'2 3.4
2018-Jan-07 11:30N 38°38' W 009°26'510.4
2018-Jan-07 11:00N 38°34' W 009°30'5 9.4
2018-Jan-07 10:30N 38°31' W 009°34'3 6.1
2018-Jan-07 10:00N 38°31' W 009°38'510.2
2018-Jan-07 09:30N 38°34' W 009°44'611.0
2018-Jan-07 09:00N 38°33' W 009°51'611.4
2018-Jan-07 08:30N 38°34' W 009°58'2110.6
2018-Jan-07 06:30N 38°52' W 010°12'714.2
2018-Jan-07 06:00N 38°59' W 010°11'714.6
2018-Jan-07 05:30N 39°07' W 010°12'714.2
2018-Jan-07 05:00N 39°14' W 010°12'  
2018-Jan-04 19:22N 49°54' W 003°11'6 7.1
2018-Jan-04 18:28N 49°57' W 003°03'4 7.6
2018-Jan-04 18:00N 49°59' W 002°58'4 8.1
2018-Jan-04 17:29N 50°00' W 002°52'4 8.5
2018-Jan-04 16:59N 50°02' W 002°45'95 8.8
2018-Jan-04 06:17N 50°28' W 000°23'414.9
2018-Jan-04 06:00N 50°29' W 000°17'815.6
2018-Jan-04 05:30N 50°31' W 000°05'815.9
2018-Jan-04 05:00N 50°33' E 000°07'815.9
2018-Jan-04 04:30N 50°35' E 000°19'815.7
2018-Jan-04 04:00N 50°37' E 000°31'714.7
2018-Jan-04 03:30N 50°41' E 000°41'714.1
2018-Jan-04 03:01N 50°45' E 000°50'713.2
2018-Jan-04 02:30N 50°49' E 000°59'1212.0
2018-Jan-04 01:32N 50°57' E 001°12'110.4
2018-Jan-04 01:26N 50°57' E 001°14'510.6
2018-Jan-04 00:57N 51°01' E 001°19'510.4
2018-Jan-04 00:30N 51°03' E 001°26'510.3
2018-Jan-04 00:00N 51°07' E 001°32'611.4
2018-Jan-03 23:30N 51°10' E 001°39'612.9
2018-Jan-03 23:00N 51°15' E 001°46'714.9
2018-Jan-03 22:30N 51°22' E 001°51'815.9
2018-Jan-03 22:00N 51°29' E 001°58'816.0
2018-Jan-03 21:30N 51°35' E 002°05'17212.1
2018-Jan-03 07:19N 54°17' E 000°30'515.8
2018-Jan-03 07:00N 54°20' E 000°22'816.0
2018-Jan-03 06:30N 54°23' E 000°10'816.4
2018-Jan-03 06:00N 54°27' W 000°02'816.7
2018-Jan-03 05:30N 54°31' W 000°15'  

Dump ship's entire track history